Time;durP1;ratioP1;P1;durP2;ratioP2;P2;SDS_P1;SDS_P2;PMS_P1;PMS_P2;Temp;Humidity;BMP_temperature;BMP_pressure;BME280_temperature;BME280_humidity;BME280_pressure;Samples;Min_cycle;Max_cycle;Signal;HPM_P1;HPM_P2
2022/07/30 00:00:24;;;;;;;12.75;7.15;;;;;;;16.61;85.31;101695.34;5070924;28;20962;-63
2022/07/30 00:02:49;;;;;;;14.35;7.07;;;;;;;16.57;85.81;101691.44;5071066;28;20047;-63
2022/07/30 00:05:15;;;;;;;15.48;6.18;;;;;;;16.55;85.80;101694.34;5071016;28;20456;-63
2022/07/30 00:07:40;;;;;;;12.70;6.60;;;;;;;16.54;86.14;101686.50;5071012;28;20483;-63
2022/07/30 00:10:06;;;;;;;13.95;6.22;;;;;;;16.54;86.23;101694.56;5070816;28;20078;-63
2022/07/30 00:12:31;;;;;;;11.52;6.95;;;;;;;16.52;86.65;101692.09;5070914;28;20090;-63
2022/07/30 00:14:56;;;;;;;12.85;6.93;;;;;;;16.54;86.66;101695.41;5070339;28;20047;-63
2022/07/30 00:17:22;;;;;;;13.02;8.05;;;;;;;16.56;86.72;101701.41;5070808;28;20037;-63
2022/07/30 00:19:47;;;;;;;16.20;6.40;;;;;;;16.58;87.06;101687.69;5070586;28;20033;-63
2022/07/30 00:22:12;;;;;;;14.07;7.10;;;;;;;16.60;86.95;101689.13;5070685;28;20035;-63
2022/07/30 00:24:38;;;;;;;13.65;7.57;;;;;;;16.59;87.11;101689.38;5070533;28;20541;-63
2022/07/30 00:27:03;;;;;;;11.07;6.18;;;;;;;16.54;87.39;101681.09;5070433;28;20043;-63
2022/07/30 00:29:29;;;;;;;12.07;7.38;;;;;;;16.56;87.75;101685.25;5069838;28;20059;-63
2022/07/30 00:31:55;;;;;;;11.88;6.50;;;;;;;16.55;88.03;101694.34;5070194;28;20137;-63
2022/07/30 00:34:20;;;;;;;12.50;7.53;;;;;;;16.54;88.15;101690.00;5070132;28;20111;-63
2022/07/30 00:36:45;;;;;;;16.35;6.53;;;;;;;16.54;88.86;101695.41;5070173;28;20400;-63
2022/07/30 00:39:11;;;;;;;15.90;7.45;;;;;;;16.54;88.40;101697.28;5069648;28;20094;-63
2022/07/30 00:41:52;;;;;;;9.88;5.90;;;;;;;16.53;88.35;101699.13;5068766;28;20021;-63
2022/07/30 00:44:17;;;;;;;10.60;6.22;;;;;;;16.46;88.97;101687.56;5070237;28;20028;-63
2022/07/30 00:46:43;;;;;;;12.38;7.30;;;;;;;16.46;89.32;101689.44;5070134;28;20074;-63
2022/07/30 00:49:08;;;;;;;16.25;7.25;;;;;;;16.37;89.28;101672.69;5070130;28;20032;-63
2022/07/30 00:51:33;;;;;;;10.80;7.03;;;;;;;16.44;89.28;101689.66;5070080;28;20036;-63
2022/07/30 00:53:59;;;;;;;16.95;7.95;;;;;;;16.43;89.29;101688.81;5070023;28;20036;-63
2022/07/30 00:56:24;;;;;;;13.68;7.72;;;;;;;16.39;89.38;101681.38;5069778;28;20054;-63
2022/07/30 00:58:49;;;;;;;16.60;8.45;;;;;;;16.33;89.78;101671.47;5069748;28;20041;-63
2022/07/30 01:01:15;;;;;;;15.15;9.05;;;;;;;16.26;90.05;101676.06;5069904;28;20021;-63
2022/07/30 01:03:40;;;;;;;14.70;7.63;;;;;;;16.23;90.10;101676.50;5069914;28;21013;-63
2022/07/30 01:06:05;;;;;;;13.30;7.03;;;;;;;16.16;90.30;101680.03;5069506;28;20031;-63
2022/07/30 01:08:31;;;;;;;13.15;7.57;;;;;;;16.14;90.29;101673.22;5069842;28;20162;-63
2022/07/30 01:10:56;;;;;;;13.10;7.25;;;;;;;16.10;90.56;101682.75;5069542;28;20412;-63
2022/07/30 01:13:21;;;;;;;19.77;9.05;;;;;;;16.07;91.40;101686.69;5069347;28;20044;-63
2022/07/30 01:15:47;;;;;;;17.00;8.00;;;;;;;16.03;91.36;101690.03;5069433;28;20387;-64
2022/07/30 01:18:14;;;;;;;12.50;7.60;;;;;;;15.99;91.33;101679.69;5069613;28;20048;-63
2022/07/30 01:20:48;;;;;;;15.80;7.75;;;;;;;15.97;92.13;101689.81;5069578;28;20863;-63
2022/07/30 01:23:24;;;;;;;14.00;8.43;;;;;;;15.92;93.20;101684.25;5069245;28;20115;-63
2022/07/30 01:26:04;;;;;;;13.60;8.50;;;;;;;15.90;92.90;101682.81;5069674;28;20032;-63
2022/07/30 01:28:34;;;;;;;17.02;7.97;;;;;;;15.89;92.91;101679.31;5069331;28;20546;-63
2022/07/30 01:31:01;;;;;;;14.70;8.48;;;;;;;15.89;92.81;101683.88;5068751;28;20102;-63
2022/07/30 01:33:27;;;;;;;12.35;7.85;;;;;;;15.87;92.71;101673.31;5069150;28;20056;-63
2022/07/30 01:35:54;;;;;;;14.52;7.28;;;;;;;15.88;93.02;101674.97;5068942;28;20089;-63
2022/07/30 01:38:22;;;;;;;15.63;8.27;;;;;;;15.85;92.91;101678.09;5069419;28;20471;-63
2022/07/30 01:40:49;;;;;;;13.90;8.50;;;;;;;15.85;93.24;101686.16;5069218;28;20020;-63
2022/07/30 01:43:17;;;;;;;15.73;8.93;;;;;;;15.83;93.40;101684.72;5069691;28;20032;-63
2022/07/30 01:45:45;;;;;;;15.68;8.70;;;;;;;15.82;93.50;101683.88;5069390;28;20395;-63
2022/07/30 01:48:12;;;;;;;12.68;7.22;;;;;;;15.79;93.48;101681.59;5069311;28;20056;-63
2022/07/30 01:50:42;;;;;;;15.07;7.70;;;;;;;15.76;93.15;101682.84;5069430;28;20032;-63
2022/07/30 01:53:08;;;;;;;15.25;8.48;;;;;;;15.73;93.68;101674.38;5068574;28;20032;-63
2022/07/30 01:55:35;;;;;;;15.80;8.75;;;;;;;15.74;93.98;101678.72;5069190;28;20036;-63
2022/07/30 01:58:05;;;;;;;16.50;8.07;;;;;;;15.72;93.74;101676.25;5069045;28;20130;-63
2022/07/30 02:00:33;;;;;;;14.98;8.15;;;;;;;15.68;94.24;101684.91;5069158;28;20035;-63
2022/07/30 02:02:58;;;;;;;15.05;7.93;;;;;;;15.65;94.19;101690.72;5069252;28;20028;-63
2022/07/30 02:05:26;;;;;;;15.38;8.77;;;;;;;15.61;94.19;101679.53;5068980;28;20046;-63
2022/07/30 02:08:00;;;;;;;16.05;7.63;;;;;;;15.49;94.46;101665.91;5069194;28;20024;-63
2022/07/30 02:10:47;;;;;;;14.43;8.18;;;;;;;15.58;94.69;101685.34;5068965;28;20428;-63
2022/07/30 02:13:19;;;;;;;16.95;8.80;;;;;;;15.57;94.53;101689.06;5069124;28;20086;-63
2022/07/30 02:16:04;;;;;;;14.68;8.48;;;;;;;15.55;94.27;101694.66;5067711;28;20383;-63
2022/07/30 02:18:37;;;;;;;15.70;7.63;;;;;;;15.53;94.48;101688.66;5068779;28;20032;-63
2022/07/30 02:21:09;;;;;;;15.48;9.40;;;;;;;15.53;94.95;101693.19;5068950;28;20017;-63
2022/07/30 02:23:39;;;;;;;14.85;8.57;;;;;;;15.51;95.14;101693.44;5069032;28;21001;-63
2022/07/30 02:26:07;;;;;;;14.38;8.35;;;;;;;15.50;95.52;101690.94;5068504;28;20028;-63
2022/07/30 02:28:36;;;;;;;17.42;9.52;;;;;;;15.46;95.90;101685.16;5068660;28;20028;-63
2022/07/30 02:31:04;;;;;;;17.38;10.50;;;;;;;15.43;96.66;101690.09;5068781;28;20064;-63
2022/07/30 02:33:36;;;;;;;17.77;10.40;;;;;;;15.43;96.91;101684.72;5068338;28;20090;-63
2022/07/30 02:36:02;;;;;;;18.63;10.35;;;;;;;15.43;97.31;101687.41;5068492;28;20034;-63
2022/07/30 02:38:29;;;;;;;18.38;9.50;;;;;;;15.43;98.21;101692.78;5068537;28;20590;-63
2022/07/30 02:40:58;;;;;;;20.02;10.77;;;;;;;15.43;98.45;101690.97;5068834;28;20039;-63
2022/07/30 02:43:25;;;;;;;15.45;8.90;;;;;;;15.42;97.16;101697.34;5068718;28;20507;-63
2022/07/30 02:45:51;;;;;;;17.65;10.85;;;;;;;15.41;97.76;101697.56;5068670;28;20036;-63
2022/07/30 02:48:19;;;;;;;20.95;10.70;;;;;;;15.37;97.00;101693.63;5068651;28;20031;-63
2022/07/30 02:50:47;;;;;;;16.13;10.15;;;;;;;15.29;96.37;101691.97;5068578;28;20035;-63
2022/07/30 02:53:14;;;;;;;16.20;9.00;;;;;;;15.30;96.90;101691.78;5067330;28;20444;-63
2022/07/30 02:55:42;;;;;;;18.75;10.13;;;;;;;15.28;96.83;101690.34;5068473;28;20047;-63
2022/07/30 02:58:09;;;;;;;17.55;10.55;;;;;;;15.28;96.94;101690.34;5068818;28;20051;-63
2022/07/30 03:00:36;;;;;;;17.45;10.43;;;;;;;15.27;97.29;101691.34;5068235;28;20059;-63
2022/07/30 03:03:06;;;;;;;21.10;10.18;;;;;;;15.22;96.35;101692.00;5067300;28;20037;-63
2022/07/30 03:05:32;;;;;;;21.55;10.98;;;;;;;15.18;96.60;101685.38;5069969;28;20024;-64
2022/07/30 03:07:58;;;;;;;18.33;11.10;;;;;;;15.22;97.28;101696.53;5072185;28;20028;-63
2022/07/30 03:10:25;;;;;;;21.42;11.02;;;;;;;15.22;97.42;101701.91;5071996;28;20127;-63
2022/07/30 03:12:52;;;;;;;19.10;10.18;;;;;;;15.16;97.27;101700.06;5072051;28;20052;-63
2022/07/30 03:15:18;;;;;;;19.15;10.20;;;;;;;15.16;97.48;101706.25;5071999;28;20033;-63
2022/07/30 03:17:50;;;;;;;18.50;9.85;;;;;;;15.12;97.85;101703.16;5071781;28;20036;-63
2022/07/30 03:20:20;;;;;;;18.35;11.25;;;;;;;15.08;98.48;101691.16;5071867;28;20374;-63
2022/07/30 03:22:49;;;;;;;20.92;12.75;;;;;;;15.14;99.57;101702.94;5071571;28;20056;-63
2022/07/30 03:25:21;;;;;;;20.13;11.48;;;;;;;15.14;99.39;101705.63;5071328;28;20029;-63
2022/07/30 03:27:47;;;;;;;21.75;12.35;;;;;;;15.14;99.14;101708.31;5071945;28;20040;-63
2022/07/30 03:30:13;;;;;;;20.48;11.27;;;;;;;15.12;98.58;101707.72;5071240;28;20044;-63
2022/07/30 03:32:39;;;;;;;19.27;11.77;;;;;;;15.11;99.23;101706.03;5071637;28;20407;-63
2022/07/30 03:35:07;;;;;;;18.38;11.43;;;;;;;15.10;98.79;101704.38;5071339;28;20040;-63
2022/07/30 03:37:34;;;;;;;20.33;11.80;;;;;;;15.05;99.45;101702.31;5071236;28;20029;-63
2022/07/30 03:40:00;;;;;;;20.95;11.95;;;;;;;15.06;99.53;101709.34;5071189;28;20036;-63
2022/07/30 03:42:26;;;;;;;22.20;11.65;;;;;;;15.06;99.58;101711.19;5071502;28;20036;-63
2022/07/30 03:44:52;;;;;;;21.83;11.75;;;;;;;15.05;99.40;101705.00;5071406;28;20036;-63
2022/07/30 03:47:19;;;;;;;21.55;13.18;;;;;;;15.03;100.00;101704.38;5071278;28;20495;-63
2022/07/30 03:49:45;;;;;;;16.60;11.18;;;;;;;15.02;99.86;101707.28;5070851;28;20554;-63
2022/07/30 03:52:11;;;;;;;22.20;12.70;;;;;;;15.02;100.00;101704.59;5071104;28;20135;-63
2022/07/30 03:54:36;;;;;;;20.88;11.90;;;;;;;15.00;100.00;101699.41;5070991;28;20491;-63
2022/07/30 03:57:04;;;;;;;18.65;12.75;;;;;;;14.96;100.00;101703.56;5071114;28;20033;-63
2022/07/30 03:59:30;;;;;;;20.38;12.68;;;;;;;14.99;100.00;101703.13;5069719;28;20463;-63
2022/07/30 04:02:01;;;;;;;27.00;13.52;;;;;;;14.99;99.92;101710.38;5070994;28;20052;-63
2022/07/30 04:04:27;;;;;;;21.30;12.43;;;;;;;14.97;100.00;101715.13;5070948;28;20035;-63
2022/07/30 04:06:52;;;;;;;22.48;14.40;;;;;;;14.97;100.00;101717.81;5070928;28;20025;-63
2022/07/30 04:09:18;;;;;;;22.58;14.35;;;;;;;14.94;100.00;101713.66;5070856;28;20507;-63
2022/07/30 04:11:43;;;;;;;24.10;14.27;;;;;;;14.91;100.00;101719.47;5070844;28;20115;-63
2022/07/30 04:14:09;;;;;;;21.90;12.75;;;;;;;14.92;100.00;101718.41;5070325;28;20031;-63
2022/07/30 04:16:53;;;;;;;21.92;12.23;;;;;;;14.94;100.00;101726.28;5070460;28;20035;-63
2022/07/30 04:19:27;;;;;;;23.98;14.18;;;;;;;14.94;100.00;101727.09;5070429;28;20036;-63
2022/07/30 04:21:54;;;;;;;23.50;15.52;;;;;;;14.93;100.00;101733.50;5070656;28;20037;-63
2022/07/30 04:24:21;;;;;;;23.00;14.18;;;;;;;14.92;100.00;101731.84;5070536;28;20478;-63
2022/07/30 04:26:47;;;;;;;22.10;13.90;;;;;;;14.90;100.00;101736.59;5070401;28;20492;-63
2022/07/30 04:29:14;;;;;;;22.05;13.30;;;;;;;14.85;99.78;101729.13;5070187;28;20051;-63
2022/07/30 04:31:39;;;;;;;21.38;12.57;;;;;;;14.84;100.00;101735.53;5070086;28;20029;-63
2022/07/30 04:34:05;;;;;;;23.10;12.98;;;;;;;14.86;100.00;101736.19;5070497;28;20035;-63
2022/07/30 04:36:31;;;;;;;21.17;11.90;;;;;;;14.91;100.00;101735.56;5070355;28;20033;-63
2022/07/30 04:38:58;;;;;;;24.52;13.30;;;;;;;14.94;100.00;101739.72;5069941;28;20538;-63
2022/07/30 04:41:23;;;;;;;26.73;14.43;;;;;;;14.95;99.95;101742.19;5069795;28;20040;-63
2022/07/30 04:43:50;;;;;;;24.25;13.57;;;;;;;14.97;99.71;101747.34;5070119;28;20051;-64
2022/07/30 04:46:15;;;;;;;26.23;14.13;;;;;;;14.99;100.00;101751.50;5070195;28;20380;-63
2022/07/30 04:48:41;;;;;;;22.52;14.55;;;;;;;15.04;99.74;101746.34;5070121;28;20031;-63
2022/07/30 04:51:12;;;;;;;24.27;14.75;;;;;;;15.07;100.00;101748.63;5069868;28;20524;-63
2022/07/30 04:53:39;;;;;;;;;;;;;;;15.21;98.09;101748.63;5070314;28;20024;-63
2022/07/30 04:56:05;;;;;;;28.08;15.43;;;;;;;15.48;98.68;101757.53;5069734;28;19927;-63
2022/07/30 04:58:33;;;;;;;22.23;13.38;;;;;;;15.82;97.04;101752.97;5068377;28;20533;-63
2022/07/30 05:01:00;;;;;;;24.00;14.70;;;;;;;15.97;96.55;101756.28;5069399;28;20020;-63
2022/07/30 05:03:28;;;;;;;23.00;13.13;;;;;;;16.05;95.52;101763.28;5069848;28;20485;-63
2022/07/30 05:05:56;;;;;;;23.70;14.45;;;;;;;16.06;94.79;101760.41;5069760;28;20039;-63
2022/07/30 05:08:23;;;;;;;20.55;12.23;;;;;;;16.13;95.21;101768.44;5069440;28;20377;-63
2022/07/30 05:10:49;;;;;;;26.38;14.70;;;;;;;16.16;94.78;101765.31;5069677;28;20106;-63
2022/07/30 05:13:15;;;;;;;22.23;13.93;;;;;;;16.21;94.55;101773.59;5069424;28;20060;-63
2022/07/30 05:15:41;;;;;;;22.58;12.85;;;;;;;16.24;94.33;101777.72;5068173;28;20391;-63
2022/07/30 05:18:06;;;;;;;27.40;12.23;;;;;;;16.26;93.83;101778.34;5069541;28;20036;-63
2022/07/30 05:20:32;;;;;;;21.17;12.40;;;;;;;16.27;93.29;101780.00;5069152;28;20093;-63
2022/07/30 05:22:57;;;;;;;20.92;12.20;;;;;;;16.29;93.28;101775.22;5069543;28;20042;-63
2022/07/30 05:25:22;;;;;;;22.25;13.38;;;;;;;16.33;93.33;101776.47;5069529;28;20036;-63
2022/07/30 05:27:48;;;;;;;21.15;13.13;;;;;;;16.37;93.05;101785.75;5068926;28;20112;-63
2022/07/30 05:30:13;;;;;;;20.42;13.25;;;;;;;16.39;92.82;101781.81;5069051;28;20047;-63
2022/07/30 05:32:38;;;;;;;21.20;13.32;;;;;;;16.46;92.89;101778.31;5069416;28;20028;-63
2022/07/30 05:35:04;;;;;;;22.40;12.98;;;;;;;16.67;92.43;101774.47;5069356;28;20024;-63
2022/07/30 05:37:30;;;;;;;21.55;12.68;;;;;;;17.39;89.50;101781.31;5069451;28;20040;-63
2022/07/30 05:39:55;;;;;;;21.55;12.80;;;;;;;17.95;86.18;101775.03;5068963;28;20033;-63
2022/07/30 05:42:20;;;;;;;20.02;10.57;;;;;;;18.01;85.43;101777.91;5069107;28;20040;-63
2022/07/30 05:44:45;;;;;;;19.20;10.73;;;;;;;17.98;85.25;101773.78;5069211;28;20032;-63
2022/07/30 05:47:11;;;;;;;20.75;10.35;;;;;;;17.87;85.12;101780.72;5069246;28;20139;-63
2022/07/30 05:49:36;;;;;;;20.45;10.13;;;;;;;17.63;86.25;101782.38;5069164;28;20021;-63
2022/07/30 05:52:01;;;;;;;14.73;9.90;;;;;;;17.40;87.33;101785.69;5069221;28;20040;-63
2022/07/30 05:54:27;;;;;;;19.85;10.07;;;;;;;17.19;87.86;101788.72;5069033;28;20028;-63
2022/07/30 05:56:52;;;;;;;20.27;10.68;;;;;;;17.05;89.19;101793.34;5068850;28;20036;-63
2022/07/30 05:59:18;;;;;;;22.60;11.15;;;;;;;16.99;89.71;101791.53;5068873;28;20032;-63
2022/07/30 06:01:43;;;;;;;18.95;10.23;;;;;;;16.96;90.52;101802.75;5069129;28;20392;-63
2022/07/30 06:04:08;;;;;;;15.73;9.50;;;;;;;16.97;90.75;101801.69;5069120;28;20089;-63
2022/07/30 06:06:34;;;;;;;15.20;9.95;;;;;;;16.94;90.74;101807.53;5069071;28;20070;-63
2022/07/30 06:08:59;;;;;;;15.90;9.30;;;;;;;16.93;90.68;101798.63;5069057;28;20036;-63
2022/07/30 06:11:24;;;;;;;17.67;9.38;;;;;;;16.96;90.76;101802.75;5068930;28;20033;-63
2022/07/30 06:13:50;;;;;;;14.70;8.57;;;;;;;16.99;91.31;101803.16;5068804;28;20032;-63
2022/07/30 06:16:15;;;;;;;18.60;9.57;;;;;;;17.03;91.13;101800.84;5068818;28;20029;-63
2022/07/30 06:18:40;;;;;;;16.95;10.05;;;;;;;17.05;90.90;101810.34;5069013;28;20428;-63
2022/07/30 06:21:06;;;;;;;19.80;10.25;;;;;;;17.08;91.33;101809.94;5068832;28;20029;-63
2022/07/30 06:23:31;;;;;;;20.02;10.82;;;;;;;17.04;90.44;101803.31;5068853;28;20681;-63
2022/07/30 06:25:56;;;;;;;17.48;9.20;;;;;;;17.09;90.60;101811.59;5068860;28;20021;-63
2022/07/30 06:28:22;;;;;;;15.18;9.50;;;;;;;17.16;90.21;101813.41;5068691;28;20193;-63
2022/07/30 06:30:47;;;;;;;17.40;10.32;;;;;;;17.22;90.38;101809.88;5068509;28;20530;-63
2022/07/30 06:33:14;;;;;;;14.70;9.38;;;;;;;17.24;89.23;101813.16;5068821;28;20056;-67
2022/07/30 06:35:39;;;;;;;17.58;8.60;;;;;;;17.26;89.55;101814.59;5068685;28;20480;-67
2022/07/30 06:38:05;;;;;;;18.40;9.60;;;;;;;17.29;90.33;101814.16;5068650;28;20090;-68
2022/07/30 06:40:30;;;;;;;19.80;9.25;;;;;;;17.36;90.19;101822.19;5071582;28;20376;-67
2022/07/30 06:42:55;;;;;;;18.60;9.18;;;;;;;17.36;89.55;101824.06;5072171;28;20071;-67
2022/07/30 06:45:21;;;;;;;16.08;9.52;;;;;;;17.45;89.59;101828.19;5072161;28;20029;-68
2022/07/30 06:47:46;;;;;;;16.38;8.25;;;;;;;17.49;90.00;101821.28;5072413;28;20107;-68
2022/07/30 06:50:11;;;;;;;14.98;7.88;;;;;;;17.43;88.46;101822.97;5072271;28;20148;-67
2022/07/30 06:52:37;;;;;;;15.10;7.88;;;;;;;17.51;88.72;101827.28;5072308;28;20093;-71
2022/07/30 06:55:03;;;;;;;11.82;6.88;;;;;;;17.60;88.67;101828.66;5072268;28;20028;-70
2022/07/30 06:57:29;;;;;;;16.48;7.25;;;;;;;17.65;88.73;101819.91;5072119;28;20487;-72
2022/07/30 06:59:54;;;;;;;11.63;7.00;;;;;;;17.74;87.57;101819.44;5072129;28;20051;-73
2022/07/30 07:02:19;;;;;;;8.55;4.88;;;;;;;17.76;85.15;101827.28;5072128;28;20089;-69
2022/07/30 07:04:45;;;;;;;12.25;6.38;;;;;;;17.78;86.58;101818.97;5072070;28;20060;-69
2022/07/30 07:07:10;;;;;;;13.98;6.32;;;;;;;17.81;86.39;101823.97;5072013;28;20113;-69
2022/07/30 07:09:36;;;;;;;13.57;7.13;;;;;;;17.83;85.76;101824.56;5071752;28;20028;-69
2022/07/30 07:12:01;;;;;;;12.82;6.57;;;;;;;17.82;85.35;101815.66;5071936;28;20032;-69
2022/07/30 07:14:26;;;;;;;14.75;6.90;;;;;;;17.88;86.75;101824.75;5072128;28;20055;-69
2022/07/30 07:16:52;;;;;;;13.18;7.15;;;;;;;17.91;84.96;101821.59;5071840;28;20046;-72
2022/07/30 07:19:17;;;;;;;11.80;6.97;;;;;;;17.95;84.48;101828.22;5071608;28;20047;-70
2022/07/30 07:21:43;;;;;;;16.58;7.15;;;;;;;18.00;84.15;101825.69;5070431;28;20031;-70
2022/07/30 07:24:08;;;;;;;14.82;6.18;;;;;;;18.20;83.22;101828.16;5071538;28;20391;-70
2022/07/30 07:26:34;;;;;;;10.70;6.03;;;;;;;18.31;82.63;101829.28;5071628;28;20391;-70
2022/07/30 07:28:59;;;;;;;8.77;5.07;;;;;;;18.40;81.75;101834.19;5071393;28;20032;-69
2022/07/30 07:31:25;;;;;;;13.85;5.35;;;;;;;18.55;81.11;101827.59;5071489;28;20028;-70
2022/07/30 07:33:53;;;;;;;13.35;5.82;;;;;;;18.61;79.79;101830.19;5071386;28;20036;-70
2022/07/30 07:36:19;;;;;;;9.93;5.22;;;;;;;18.65;79.78;101835.16;5071582;28;20077;-70
2022/07/30 07:38:44;;;;;;;6.22;4.03;;;;;;;18.70;78.56;101832.59;5071251;28;20028;-70
2022/07/30 07:41:10;;;;;;;7.57;4.65;;;;;;;18.69;78.23;101831.78;5071277;28;20031;-70
2022/07/30 07:43:35;;;;;;;10.20;4.88;;;;;;;18.71;78.67;101835.09;5070747;28;20037;-70
2022/07/30 07:46:01;;;;;;;10.88;4.93;;;;;;;18.74;77.94;101831.09;5071062;28;20024;-69
2022/07/30 07:48:26;;;;;;;10.35;4.53;;;;;;;18.78;77.05;101825.03;5071326;28;20032;-70
2022/07/30 07:50:52;;;;;;;12.88;5.15;;;;;;;18.83;76.51;101827.88;5070263;28;20021;-69
2022/07/30 07:53:17;;;;;;;7.55;4.05;;;;;;;18.82;74.67;101838.91;5071313;28;20535;-69
2022/07/30 07:55:42;;;;;;;8.85;4.70;;;;;;;18.77;75.61;101834.19;5071231;28;20029;-69
2022/07/30 07:58:10;;;;;;;9.10;5.25;;;;;;;18.80;76.38;101825.63;5071021;28;20111;-69
2022/07/30 08:00:35;;;;;;;9.15;4.70;;;;;;;18.94;74.81;101836.25;5069806;28;20533;-69
2022/07/30 08:03:01;;;;;;;8.57;4.78;;;;;;;18.98;73.88;101834.75;5071037;28;20028;-69
2022/07/30 08:05:26;;;;;;;10.00;4.45;;;;;;;18.97;73.29;101831.25;5070955;28;20074;-69
2022/07/30 08:07:51;;;;;;;7.47;4.47;;;;;;;18.94;73.25;101820.03;5070927;28;20040;-69
2022/07/30 08:10:17;;;;;;;7.00;4.50;;;;;;;18.89;74.53;101809.09;5070861;28;20025;-69
2022/07/30 08:12:43;;;;;;;12.80;4.90;;;;;;;19.01;73.57;101813.50;5070843;28;20051;-71
2022/07/30 08:15:08;;;;;;;8.30;4.90;;;;;;;19.40;71.57;101826.69;5070922;28;20032;-69
2022/07/30 08:17:44;;;;;;;8.50;4.28;;;;;;;20.75;70.26;101822.19;5070558;28;20201;-69
2022/07/30 08:20:12;;;;;;;6.75;4.13;;;;;;;22.61;62.35;101820.34;5070692;28;20468;-69
2022/07/30 08:22:37;;;;;;;4.32;3.30;;;;;;;24.82;52.21;101823.69;5070236;28;20071;-69
2022/07/30 08:25:03;;;;;;;6.25;3.08;;;;;;;26.53;47.03;101823.34;5070441;28;20032;-69
2022/07/30 08:27:28;;;;;;;7.45;3.65;;;;;;;27.39;44.89;101821.19;5070237;28;20074;-69
2022/07/30 08:29:54;;;;;;;6.22;3.08;;;;;;;28.68;43.01;101824.22;5070055;28;20072;-69
2022/07/30 08:32:19;;;;;;;8.52;3.38;;;;;;;29.59;40.89;101821.19;5069408;28;20452;-69
2022/07/30 08:34:45;;;;;;;7.00;3.63;;;;;;;30.34;39.79;101826.41;5070334;28;20476;-70
2022/07/30 08:37:10;;;;;;;6.07;2.75;;;;;;;30.97;37.55;101819.28;5070451;28;20032;-69
2022/07/30 08:39:36;;;;;;;7.32;3.45;;;;;;;30.88;37.92;101823.88;5070177;28;20085;-69
2022/07/30 08:42:04;;;;;;;5.55;2.80;;;;;;;29.48;39.67;101821.38;5070270;28;20032;-65
2022/07/30 08:44:32;;;;;;;5.35;3.42;;;;;;;27.92;43.32;101829.50;5070046;28;20665;-65
2022/07/30 08:47:00;;;;;;;7.22;3.05;;;;;;;28.67;41.18;101831.66;5069581;28;20033;-65
2022/07/30 08:49:26;;;;;;;6.13;2.80;;;;;;;29.82;38.99;101833.19;5070033;28;20395;-65
2022/07/30 08:51:52;;;;;;;5.93;3.30;;;;;;;30.43;37.20;101822.94;5070062;28;20174;-65
2022/07/30 08:54:18;;;;;;;4.13;2.72;;;;;;;30.82;36.56;101819.63;5069998;28;20031;-65
2022/07/30 08:56:44;;;;;;;5.90;2.88;;;;;;;31.44;35.90;101832.78;5070011;28;20028;-65
2022/07/30 08:59:10;;;;;;;5.40;3.10;;;;;;;31.81;33.69;101823.25;5069839;28;20033;-65
2022/07/30 09:01:36;;;;;;;7.57;2.55;;;;;;;31.99;34.27;101832.44;5068619;28;20368;-65
2022/07/30 09:04:02;;;;;;;2.25;2.00;;;;;;;30.64;33.74;101826.06;5069712;28;20127;-65
2022/07/30 09:06:27;;;;;;;5.45;3.13;;;;;;;28.36;38.94;101833.94;5069658;28;20033;-65
2022/07/30 09:08:53;;;;;;;6.35;2.90;;;;;;;26.57;43.87;101827.97;5069737;28;20036;-65
2022/07/30 09:11:18;;;;;;;5.53;2.33;;;;;;;25.36;45.80;101826.00;5069538;28;20498;-65
2022/07/30 09:13:44;;;;;;;9.10;2.72;;;;;;;24.52;47.04;101829.03;5069590;28;20086;-65
2022/07/30 09:16:24;;;;;;;7.50;3.13;;;;;;;23.96;49.06;101834.97;5069492;28;20021;-65
2022/07/30 09:18:50;;;;;;;5.93;2.25;;;;;;;23.46;52.01;101828.84;5069499;28;20543;-65
2022/07/30 09:21:24;;;;;;;6.68;3.15;;;;;;;23.15;53.72;101827.75;5069420;28;20052;-65
2022/07/30 09:24:04;;;;;;;4.90;2.70;;;;;;;22.89;54.35;101827.44;5069636;28;20107;-65
2022/07/30 09:26:32;;;;;;;5.85;3.03;;;;;;;22.62;54.21;101838.28;5069477;28;20023;-65
2022/07/30 09:29:20;;;;;;;6.40;2.78;;;;;;;22.49;56.61;101835.94;5069322;28;20468;-65
2022/07/30 09:32:02;;;;;;;6.25;3.08;;;;;;;22.39;55.55;101839.34;5069343;28;20125;-65
2022/07/30 09:34:33;;;;;;;9.75;3.45;;;;;;;22.35;55.98;101838.22;5069466;28;20796;-65
2022/07/30 09:37:01;;;;;;;7.80;2.83;;;;;;;22.29;55.13;101840.03;5069218;28;20637;-65
2022/07/30 09:39:31;;;;;;;6.63;2.80;;;;;;;22.18;56.25;101838.22;5069275;28;20040;-65
2022/07/30 09:41:57;;;;;;;3.42;2.70;;;;;;;22.23;56.13;101840.22;5069239;28;20039;-65
2022/07/30 09:44:27;;;;;;;6.00;2.50;;;;;;;22.21;54.91;101845.06;5069168;28;20031;-65
2022/07/30 09:46:52;;;;;;;2.95;2.00;;;;;;;22.22;54.94;101828.53;5068860;28;20039;-65
2022/07/30 09:49:24;;;;;;;4.40;2.40;;;;;;;22.16;53.83;101843.06;5068985;28;20036;-66
2022/07/30 09:51:50;;;;;;;7.18;2.95;;;;;;;22.14;52.09;101839.81;5069064;28;20094;-65
2022/07/30 09:54:17;;;;;;;3.88;2.20;;;;;;;22.22;54.37;101839.41;5069258;28;20041;-65
2022/07/30 09:56:42;;;;;;;5.93;2.58;;;;;;;22.25;56.20;101830.75;5069010;28;20037;-65
2022/07/30 09:59:29;;;;;;;3.55;2.70;;;;;;;22.29;55.68;101831.88;5069091;28;20040;-65
2022/07/30 10:01:56;;;;;;;3.92;2.30;;;;;;;22.37;53.87;101827.09;5069134;28;20035;-65
2022/07/30 10:04:28;;;;;;;4.35;2.15;;;;;;;22.46;53.16;101820.16;5067777;28;20035;-65
2022/07/30 10:06:55;;;;;;;4.05;2.35;;;;;;;22.46;54.27;101826.41;5069074;28;20037;-65
2022/07/30 10:09:28;;;;;;;3.65;1.92;;;;;;;22.48;54.21;101832.41;5068974;28;20048;-65
2022/07/30 10:11:56;;;;;;;4.85;2.35;;;;;;;22.56;53.32;101833.03;5069034;28;20033;-65
2022/07/30 10:14:23;;;;;;;5.28;2.65;;;;;;;22.65;51.47;101826.91;5070202;28;20024;-65
2022/07/30 10:16:50;;;;;;;5.28;2.70;;;;;;;22.66;52.87;101825.00;5073068;28;20060;-65
2022/07/30 10:19:16;;;;;;;7.68;2.00;;;;;;;22.63;52.33;101814.63;5073070;28;20032;-65
2022/07/30 10:21:47;;;;;;;3.83;2.08;;;;;;;22.59;50.66;101814.31;5073060;28;20111;-65
2022/07/30 10:24:15;;;;;;;4.75;1.67;;;;;;;22.67;51.66;101810.34;5072814;28;20036;-65
2022/07/30 10:26:41;;;;;;;6.68;2.08;;;;;;;22.71;50.56;101817.72;5072534;28;20540;-65
2022/07/30 10:29:08;;;;;;;2.42;1.70;;;;;;;22.75;50.49;101807.16;5072620;28;20055;-65
2022/07/30 10:31:33;;;;;;;6.05;2.47;;;;;;;22.89;49.64;101818.47;5072737;28;20161;-65
2022/07/30 10:33:59;;;;;;;3.30;1.75;;;;;;;22.94;49.49;101815.78;5072660;28;20051;-65
2022/07/30 10:36:25;;;;;;;3.70;1.90;;;;;;;23.04;49.63;101823.28;5072767;28;20028;-65
2022/07/30 10:38:53;;;;;;;6.68;2.22;;;;;;;23.11;49.20;101815.75;5072600;28;20025;-65
2022/07/30 10:42:01;;;;;;;3.15;1.92;;;;;;;23.19;49.65;101824.25;5072567;28;20029;-65
2022/07/30 10:44:44;;;;;;;6.68;2.83;;;;;;;23.21;50.24;101813.09;5072522;28;20616;-65
2022/07/30 10:47:13;;;;;;;1.85;1.63;;;;;;;23.30;50.11;101818.91;5072498;28;20032;-65
2022/07/30 10:49:39;;;;;;;3.42;2.17;;;;;;;23.30;48.59;101813.47;5072404;28;20036;-65
2022/07/30 10:52:05;;;;;;;4.53;2.00;;;;;;;23.40;50.30;101808.94;5071957;28;20021;-65
2022/07/30 10:54:33;;;;;;;2.33;1.83;;;;;;;23.48;50.95;101818.53;5072210;28;20047;-65
2022/07/30 10:57:10;;;;;;;3.53;2.15;;;;;;;23.54;49.42;101820.19;5072317;28;20032;-65
2022/07/30 10:59:51;;;;;;;3.67;2.33;;;;;;;23.65;50.15;101817.56;5072168;28;20436;-65
2022/07/30 11:02:18;;;;;;;6.32;1.90;;;;;;;23.72;48.15;101818.19;5072397;28;20356;-66
2022/07/30 11:04:43;;;;;;;5.93;2.03;;;;;;;23.87;50.51;101814.72;5072201;28;20094;-66
2022/07/30 11:07:21;;;;;;;2.78;2.05;;;;;;;24.11;52.01;101817.91;5072283;28;20032;-65
2022/07/30 11:09:48;;;;;;;6.97;1.95;;;;;;;24.16;48.10;101815.22;5071839;28;20060;-65
2022/07/30 11:12:13;;;;;;;3.33;1.55;;;;;;;24.19;49.71;101814.66;5071985;28;20032;-66
2022/07/30 11:14:45;;;;;;;3.17;2.33;;;;;;;24.22;48.86;101809.50;5071950;28;20361;-66
2022/07/30 11:17:16;;;;;;;4.78;2.55;;;;;;;24.10;48.98;101811.59;5072081;28;20387;-65